Time;durP1;ratioP1;P1;durP2;ratioP2;P2;SDS_P1;SDS_P2;PMS_P1;PMS_P2;Temp;Humidity;BMP_temperature;BMP_pressure;BME280_temperature;BME280_humidity;BME280_pressure;Samples;Min_cycle;Max_cycle;Signal;HPM_P1;HPM_P2
2022/11/21 00:01:55;;;;;;;22.53;19.53;;;7.10;99.90;;;;;;5051819;28;20451;-68
2022/11/21 00:04:23;;;;;;;21.50;19.20;;;7.10;99.90;;;;;;5054401;28;20509;-69
2022/11/21 00:06:51;;;;;;;27.63;21.50;;;7.10;99.90;;;;;;5058472;28;20466;-69
2022/11/21 00:09:19;;;;;;;21.93;19.47;;;7.10;99.90;;;;;;5053579;28;20540;-69
2022/11/21 00:11:46;;;;;;;36.87;20.30;;;7.00;99.90;;;;;;5048331;28;20459;-69
2022/11/21 00:14:13;;;;;;;33.40;19.93;;;7.00;99.90;;;;;;5056330;28;20884;-69
2022/11/21 00:16:41;;;;;;;28.53;19.43;;;7.00;99.90;;;;;;5055602;28;20869;-69
2022/11/21 00:19:08;;;;;;;26.47;18.97;;;6.90;99.90;;;;;;5058018;28;20468;-69
2022/11/21 00:21:36;;;;;;;30.37;19.73;;;7.00;99.90;;;;;;5070842;28;20522;-68
2022/11/21 00:24:02;;;;;;;26.93;19.67;;;7.00;99.90;;;;;;5057574;28;20951;-69
2022/11/21 00:26:29;;;;;;;19.00;17.37;;;7.00;99.90;;;;;;5059966;28;20907;-69
2022/11/21 00:28:56;;;;;;;27.93;18.90;;;7.00;99.90;;;;;;5063823;28;20471;-69
2022/11/21 00:31:24;;;;;;;25.57;18.77;;;6.90;99.90;;;;;;5060751;28;20535;-69
2022/11/21 00:33:52;;;;;;;25.53;17.93;;;6.90;99.90;;;;;;5065429;28;20459;-69
2022/11/21 00:36:19;;;;;;;21.93;18.33;;;6.90;99.90;;;;;;5058499;28;20996;-69
2022/11/21 00:38:45;;;;;;;23.33;18.73;;;6.90;99.90;;;;;;5065948;28;20484;-68
2022/11/21 00:41:12;;;;;;;22.50;17.50;;;6.90;99.90;;;;;;5058926;28;21015;-68
2022/11/21 00:43:39;;;;;;;42.97;16.60;;;6.90;99.90;;;;;;5063557;28;20529;-68
2022/11/21 00:46:07;;;;;;;18.87;16.67;;;6.90;99.90;;;;;;5069028;28;20825;-68
2022/11/21 00:48:34;;;;;;;20.30;17.30;;;6.90;99.90;;;;;;5063890;28;20459;-68
2022/11/21 00:51:02;;;;;;;18.30;16.60;;;6.90;99.90;;;;;;5066741;28;20465;-69
2022/11/21 00:53:29;;;;;;;29.93;17.60;;;6.80;99.90;;;;;;5064240;28;20472;-68
2022/11/21 00:55:56;;;;;;;29.60;17.67;;;6.80;99.90;;;;;;5065419;28;20495;-68
2022/11/21 00:58:23;;;;;;;32.20;18.87;;;6.70;99.90;;;;;;5067288;28;20465;-68
2022/11/21 01:00:52;;;;;;;21.80;16.97;;;6.80;99.90;;;;;;5053574;28;20463;-67
2022/11/21 01:03:19;;;;;;;26.53;17.20;;;6.80;99.90;;;;;;5059254;28;20468;-68
2022/11/21 01:05:46;;;;;;;33.43;17.70;;;6.70;99.90;;;;;;5063701;28;20479;-68
2022/11/21 01:08:14;;;;;;;28.33;18.13;;;6.80;99.90;;;;;;5065622;28;20801;-69
2022/11/21 01:10:41;;;;;;;23.37;17.70;;;6.80;99.90;;;;;;5059877;28;20518;-68
2022/11/21 01:13:07;;;;;;;22.73;16.53;;;6.90;99.90;;;;;;5059849;28;20462;-69
2022/11/21 01:15:35;;;;;;;21.57;16.67;;;6.90;99.90;;;;;;5062380;28;20488;-68
2022/11/21 01:18:01;;;;;;;23.23;16.23;;;6.80;99.90;;;;;;5063384;28;20474;-69
2022/11/21 01:20:28;;;;;;;20.33;16.43;;;6.70;99.90;;;;;;5063773;28;20512;-69
2022/11/21 01:22:55;;;;;;;27.93;17.00;;;6.70;99.90;;;;;;5069376;28;20466;-68
2022/11/21 01:25:24;;;;;;;18.57;15.70;;;6.60;99.90;;;;;;5063004;28;20451;-68
2022/11/21 01:27:52;;;;;;;33.13;16.47;;;6.50;99.90;;;;;;5063069;28;20485;-69
2022/11/21 01:30:18;;;;;;;25.53;15.53;;;6.50;99.90;;;;;;5059702;28;20476;-69
2022/11/21 01:32:49;;;;;;;22.73;16.63;;;6.40;99.90;;;;;;5063282;28;20964;-68
2022/11/21 01:35:16;;;;;;;21.90;16.10;;;6.40;99.90;;;;;;5057266;28;20575;-68
2022/11/21 01:37:43;;;;;;;29.33;17.33;;;6.40;99.90;;;;;;5065666;28;20477;-69
2022/11/21 01:40:11;;;;;;;21.70;17.60;;;6.40;99.90;;;;;;5057375;28;20795;-68
2022/11/21 01:42:53;;;;;;;20.73;18.47;;;6.30;99.90;;;;;;5061289;28;20497;-68
2022/11/21 01:45:54;;;;;;;21.30;16.50;;;6.20;99.90;;;;;;5057118;28;20459;-69
2022/11/21 01:48:25;;;;;;;19.20;16.47;;;6.20;99.90;;;;;;5054971;28;20489;-68
2022/11/21 01:50:54;;;;;;;22.80;15.93;;;6.20;99.90;;;;;;5051677;28;20529;-68
2022/11/21 01:53:22;;;;;;;28.73;17.53;;;6.20;99.90;;;;;;5057166;28;20475;-68
2022/11/21 01:55:49;;;;;;;24.47;16.60;;;6.10;99.90;;;;;;5061387;28;20489;-67
2022/11/21 01:58:18;;;;;;;28.13;16.93;;;6.10;99.90;;;;;;5057825;28;20490;-67
2022/11/21 02:00:47;;;;;;;18.07;16.27;;;6.10;99.90;;;;;;5061227;28;20469;-69
2022/11/21 02:03:18;;;;;;;17.20;15.60;;;6.10;99.90;;;;;;5060434;28;20495;-68
2022/11/21 02:05:45;;;;;;;17.97;16.20;;;6.10;99.90;;;;;;5060379;28;20493;-68
2022/11/21 02:08:16;;;;;;;18.50;15.77;;;6.20;99.90;;;;;;5062391;28;21039;-68
2022/11/21 02:10:49;;;;;;;21.73;14.77;;;6.20;99.90;;;;;;5063576;28;20797;-68
2022/11/21 02:13:18;;;;;;;17.30;14.57;;;6.20;99.90;;;;;;5059740;28;20473;-68
2022/11/21 02:15:45;;;;;;;16.17;14.47;;;6.20;99.90;;;;;;5059234;28;20478;-69
2022/11/21 02:18:12;;;;;;;17.67;14.53;;;6.10;99.90;;;;;;5061638;28;20458;-68
2022/11/21 02:20:46;;;;;;;16.17;14.40;;;6.10;99.90;;;;;;5059643;28;20486;-69
2022/11/21 02:23:22;;;;;;;23.20;14.73;;;6.00;99.90;;;;;;5060147;28;20466;-69
2022/11/21 02:25:51;;;;;;;25.57;14.20;;;5.90;99.90;;;;;;5060153;28;20571;-68
2022/11/21 02:28:22;;;;;;;28.60;14.77;;;5.90;99.90;;;;;;5058145;28;20496;-68
2022/11/21 02:30:49;;;;;;;15.07;13.87;;;5.90;99.90;;;;;;5054429;28;20547;-68
2022/11/21 02:33:17;;;;;;;19.63;14.47;;;5.80;99.90;;;;;;5055964;28;20460;-68
2022/11/21 02:35:44;;;;;;;15.93;14.10;;;5.70;99.90;;;;;;5060599;28;20946;-68
2022/11/21 02:38:17;;;;;;;17.13;15.30;;;5.70;99.90;;;;;;5059842;28;20468;-68
2022/11/21 02:40:50;;;;;;;16.27;14.73;;;5.60;99.90;;;;;;5061328;28;20464;-68
2022/11/21 02:43:23;;;;;;;22.07;15.90;;;5.60;99.90;;;;;;5055267;28;20492;-69
2022/11/21 02:45:49;;;;;;;15.13;14.03;;;5.50;99.90;;;;;;5060936;28;21035;-69
2022/11/21 02:48:16;;;;;;;18.20;14.80;;;5.50;99.90;;;;;;5060384;28;20475;-68
2022/11/21 02:50:44;;;;;;;21.63;15.83;;;5.40;99.90;;;;;;5056992;28;20964;-68
2022/11/21 02:53:13;;;;;;;16.20;14.70;;;5.40;99.90;;;;;;5059606;28;20855;-68
2022/11/21 02:55:40;;;;;;;17.07;15.30;;;5.30;99.90;;;;;;5062627;28;20533;-69
2022/11/21 02:58:08;;;;;;;17.60;15.90;;;5.30;99.90;;;;;;5055891;28;20966;-69
2022/11/21 03:00:39;;;;;;;27.77;16.80;;;5.40;99.90;;;;;;5054876;28;20471;-68
2022/11/21 03:03:06;;;;;;;16.33;15.00;;;5.40;99.90;;;;;;5061613;28;20456;-68
2022/11/21 03:05:33;;;;;;;16.83;15.43;;;5.50;99.90;;;;;;5051595;28;20488;-68
2022/11/21 03:08:00;;;;;;;16.63;15.10;;;5.60;99.90;;;;;;5044983;28;20470;-69
2022/11/21 03:10:28;;;;;;;17.10;14.63;;;5.70;99.90;;;;;;5038956;28;20570;-69
2022/11/21 03:12:59;;;;;;;16.27;14.77;;;5.80;99.90;;;;;;5044036;28;20832;-68
2022/11/21 03:15:28;;;;;;;15.53;14.10;;;5.90;99.90;;;;;;5039765;28;20571;-68
2022/11/21 03:17:56;;;;;;;18.77;13.80;;;6.00;99.90;;;;;;5039517;28;20807;-68
2022/11/21 03:20:23;;;;;;;16.03;14.30;;;6.00;99.90;;;;;;5045050;28;20553;-68
2022/11/21 03:22:50;;;;;;;15.03;13.50;;;6.00;99.90;;;;;;5046949;28;20547;-69
2022/11/21 03:25:17;;;;;;;15.80;13.83;;;6.00;99.90;;;;;;5042378;28;20849;-68
2022/11/21 03:27:43;;;;;;;16.07;14.57;;;6.00;99.90;;;;;;5035236;28;20577;-69
2022/11/21 03:30:12;;;;;;;23.60;12.97;;;6.00;99.90;;;;;;5044080;28;20960;-68
2022/11/21 03:32:39;;;;;;;14.00;12.83;;;6.10;99.90;;;;;;5040120;28;20578;-68
2022/11/21 03:35:09;;;;;;;15.43;13.67;;;6.00;99.90;;;;;;5045389;28;20462;-69
2022/11/21 03:37:36;;;;;;;14.93;13.10;;;6.00;99.90;;;;;;5044494;28;20811;-67
2022/11/21 03:40:03;;;;;;;14.10;12.83;;;6.10;99.90;;;;;;5037914;28;20471;-68
2022/11/21 03:42:31;;;;;;;22.03;13.60;;;6.10;99.90;;;;;;5035153;28;20507;-68
2022/11/21 03:44:58;;;;;;;14.23;13.00;;;6.00;99.90;;;;;;5048476;28;20826;-68
2022/11/21 03:47:26;;;;;;;14.13;12.83;;;6.10;99.90;;;;;;5031659;28;20983;-68
2022/11/21 03:49:53;;;;;;;17.20;13.07;;;6.20;99.90;;;;;;5042571;28;20551;-68
2022/11/21 03:52:21;;;;;;;13.37;12.00;;;6.20;99.90;;;;;;5045229;28;20490;-68
2022/11/21 03:54:48;;;;;;;14.20;12.23;;;6.20;99.90;;;;;;5043859;28;21050;-68
2022/11/21 03:57:17;;;;;;;15.50;12.57;;;6.10;99.90;;;;;;5042632;28;20499;-68
2022/11/21 03:59:43;;;;;;;14.07;12.73;;;6.20;99.90;;;;;;5047611;28;20879;-68
2022/11/21 04:02:10;;;;;;;13.60;12.10;;;6.20;99.90;;;;;;5037343;28;20475;-68
2022/11/21 04:04:37;;;;;;;14.90;12.00;;;6.20;99.90;;;;;;5037217;28;20509;-68
2022/11/21 04:07:04;;;;;;;14.10;12.63;;;6.10;99.90;;;;;;5060782;28;20492;-68
2022/11/21 04:09:32;;;;;;;14.27;12.90;;;6.10;99.90;;;;;;5057503;28;20467;-68
2022/11/21 04:11:59;;;;;;;17.43;12.37;;;6.20;99.90;;;;;;5056739;28;20494;-69
2022/11/21 04:14:27;;;;;;;13.77;12.07;;;6.10;99.90;;;;;;5057843;28;20466;-67
2022/11/21 04:16:53;;;;;;;13.13;11.90;;;6.10;99.90;;;;;;5059653;28;21014;-68
2022/11/21 04:19:20;;;;;;;18.43;12.37;;;6.10;99.90;;;;;;5056023;28;20869;-68
2022/11/21 04:21:47;;;;;;;13.17;11.93;;;6.10;99.90;;;;;;5058660;28;20505;-69
2022/11/21 04:24:14;;;;;;;13.33;12.07;;;6.20;99.90;;;;;;5055711;28;20756;-68
2022/11/21 04:26:43;;;;;;;12.77;11.67;;;6.20;99.90;;;;;;5056789;28;20827;-68
2022/11/21 04:29:11;;;;;;;12.20;11.07;;;6.30;99.90;;;;;;5057266;28;20829;-68
2022/11/21 04:31:40;;;;;;;12.20;11.20;;;6.30;99.90;;;;;;5050069;28;20466;-68
2022/11/21 04:34:07;;;;;;;11.80;10.70;;;6.30;99.90;;;;;;5054041;28;20468;-68
2022/11/21 04:36:33;;;;;;;16.00;10.63;;;6.30;99.90;;;;;;5060060;28;20512;-68
2022/11/21 04:39:00;;;;;;;16.60;12.30;;;6.30;99.90;;;;;;5056753;28;20921;-68
2022/11/21 04:41:27;;;;;;;20.43;13.73;;;6.30;99.90;;;;;;5058947;28;20459;-68
2022/11/21 04:43:55;;;;;;;12.87;10.73;;;6.40;99.90;;;;;;5058659;28;21107;-68
2022/11/21 04:46:23;;;;;;;13.03;11.77;;;6.40;99.90;;;;;;5053820;28;20471;-69
2022/11/21 04:48:49;;;;;;;14.53;12.03;;;6.40;99.90;;;;;;5057139;28;20831;-68
2022/11/21 04:51:16;;;;;;;22.00;12.60;;;6.40;99.90;;;;;;5055967;28;20457;-68
2022/11/21 04:53:43;;;;;;;15.17;11.87;;;6.40;99.90;;;;;;5058956;28;20469;-68
2022/11/21 04:56:13;;;;;;;16.37;12.47;;;6.50;99.90;;;;;;5050086;28;20501;-69
2022/11/21 04:58:40;;;;;;;13.20;11.90;;;6.50;99.90;;;;;;5057615;28;20474;-68
2022/11/21 05:01:09;;;;;;;13.80;12.37;;;6.60;99.90;;;;;;5053700;28;20955;-69
2022/11/21 05:03:36;;;;;;;17.97;12.87;;;6.50;99.90;;;;;;5053941;28;20811;-69
2022/11/21 05:06:02;;;;;;;15.23;13.03;;;6.50;99.90;;;;;;5053951;28;20505;-68
2022/11/21 05:08:30;;;;;;;16.60;14.30;;;6.50;99.90;;;;;;5057298;28;20463;-68
2022/11/21 05:13:42;;;;;;;22.30;16.67;;;6.40;99.90;;;;;;5055034;28;20455;-69
2022/11/21 05:16:10;;;;;;;23.13;15.60;;;6.50;99.90;;;;;;5064648;28;20493;-68
2022/11/21 05:18:37;;;;;;;25.60;16.57;;;6.50;99.90;;;;;;5053088;28;20465;-69
2022/11/21 05:21:04;;;;;;;24.03;17.07;;;6.60;99.90;;;;;;5060017;28;20471;-68
2022/11/21 05:23:31;;;;;;;22.37;18.50;;;6.60;99.90;;;;;;5064200;28;20486;-68
2022/11/21 05:25:58;;;;;;;19.53;17.37;;;6.50;99.90;;;;;;5056470;28;20685;-68
2022/11/21 05:28:25;;;;;;;25.70;22.30;;;6.50;99.90;;;;;;5060212;28;20948;-68
2022/11/21 05:30:52;;;;;;;24.30;21.80;;;6.50;99.90;;;;;;5056810;28;20493;-68
2022/11/21 05:33:20;;;;;;;26.37;21.33;;;6.50;99.90;;;;;;5056500;28;20470;-68
2022/11/21 05:35:47;;;;;;;24.57;22.17;;;6.50;99.90;;;;;;5060085;28;20480;-69
2022/11/21 05:38:13;;;;;;;27.57;23.17;;;6.50;99.90;;;;;;5052001;28;20971;-68
2022/11/21 05:40:40;;;;;;;26.87;22.53;;;6.50;99.90;;;;;;5057135;28;20549;-69
2022/11/21 05:45:52;;;;;;;25.23;22.73;;;6.50;99.90;;;;;;5063136;28;20930;-68
2022/11/21 05:48:20;;;;;;;26.83;22.80;;;6.40;99.90;;;;;;5059750;28;20965;-68
2022/11/21 05:50:49;;;;;;;36.00;25.77;;;6.40;99.90;;;;;;5051771;28;20459;-69
2022/11/21 05:53:16;;;;;;;29.80;24.97;;;6.30;99.90;;;;;;5054612;28;20464;-69
2022/11/21 05:55:43;;;;;;;26.87;23.77;;;6.30;99.90;;;;;;5058633;28;20462;-67
2022/11/21 05:58:10;;;;;;;26.37;23.73;;;6.30;99.90;;;;;;5059845;28;20882;-68
2022/11/21 06:00:38;;;;;;;31.37;25.60;;;6.40;99.90;;;;;;5057761;28;20452;-67
2022/11/21 06:05:52;;;;;;;30.13;26.90;;;6.30;99.90;;;;;;5056253;28;20614;-68
2022/11/21 06:08:19;;;;;;;27.53;24.73;;;6.30;99.90;;;;;;5053942;28;20462;-68
2022/11/21 06:10:45;;;;;;;34.63;25.13;;;6.40;99.90;;;;;;5058861;28;20553;-69
2022/11/21 06:13:22;;;;;;;26.20;23.70;;;6.40;99.90;;;;;;5059600;28;20511;-68
2022/11/21 06:15:50;;;;;;;32.07;23.83;;;6.40;99.90;;;;;;5057835;28;20798;-69
2022/11/21 06:18:18;;;;;;;26.07;23.33;;;6.30;99.90;;;;;;5048119;28;20450;-68
2022/11/21 06:20:45;;;;;;;26.37;23.57;;;6.20;99.90;;;;;;5057219;28;20509;-68
2022/11/21 06:23:13;;;;;;;24.47;22.10;;;6.30;99.90;;;;;;5064555;28;20498;-68
2022/11/21 06:25:40;;;;;;;24.83;22.20;;;6.30;99.90;;;;;;5059493;28;20539;-67
2022/11/21 06:28:07;;;;;;;35.63;21.23;;;6.30;99.90;;;;;;5060546;28;20861;-68
2022/11/21 06:30:34;;;;;;;23.30;21.10;;;6.20;99.90;;;;;;5056257;28;20823;-68
2022/11/21 06:33:03;;;;;;;21.73;19.70;;;6.30;99.90;;;;;;5051478;28;20461;-68
2022/11/21 06:35:30;;;;;;;21.73;19.63;;;6.20;99.90;;;;;;5053334;28;20474;-68
2022/11/21 06:37:57;;;;;;;21.73;19.50;;;6.30;99.90;;;;;;5060197;28;20486;-68
2022/11/21 06:40:25;;;;;;;22.70;20.57;;;6.30;99.90;;;;;;5060960;28;20694;-68
2022/11/21 06:42:52;;;;;;;20.90;19.10;;;6.30;99.90;;;;;;5058526;28;20485;-68
2022/11/21 06:45:18;;;;;;;21.70;19.50;;;6.30;99.90;;;;;;5051569;28;21162;-68
2022/11/21 06:47:45;;;;;;;21.43;19.17;;;6.30;99.90;;;;;;5061071;28;20957;-68
2022/11/21 06:50:12;;;;;;;22.43;20.00;;;6.40;99.90;;;;;;5051874;28;20483;-68
2022/11/21 06:52:38;;;;;;;24.23;20.77;;;6.30;99.90;;;;;;5057461;28;20463;-69
2022/11/21 06:55:06;;;;;;;23.53;21.03;;;6.40;99.90;;;;;;5058977;28;20470;-68
2022/11/21 06:57:34;;;;;;;22.40;20.20;;;6.30;99.90;;;;;;5054656;28;20495;-68
2022/11/21 07:00:16;;;;;;;21.47;19.40;;;6.30;99.90;;;;;;5053866;28;20483;-68
2022/11/21 07:02:43;;;;;;;32.57;21.90;;;6.30;99.90;;;;;;5047312;28;20541;-68
2022/11/21 07:05:10;;;;;;;26.13;20.33;;;6.30;99.90;;;;;;5057760;28;20792;-68
2022/11/21 07:07:37;;;;;;;21.27;19.33;;;6.20;99.90;;;;;;5052526;28;20958;-69
2022/11/21 07:10:04;;;;;;;23.03;20.90;;;6.10;99.90;;;;;;5060496;28;21031;-69
2022/11/21 07:15:17;;;;;;;28.30;21.43;;;6.10;99.90;;;;;;5054531;28;20811;-68
2022/11/21 07:17:45;;;;;;;25.30;20.27;;;6.10;99.90;;;;;;5056716;28;21016;-68
2022/11/21 07:20:12;;;;;;;23.10;20.70;;;6.00;99.90;;;;;;5054323;28;20473;-68
2022/11/21 07:22:39;;;;;;;18.93;17.23;;;5.90;99.90;;;;;;5063024;28;21403;-68
2022/11/21 07:25:06;;;;;;;19.70;17.90;;;5.90;99.90;;;;;;5055247;28;20476;-68
2022/11/21 07:27:33;;;;;;;20.77;18.60;;;6.00;99.90;;;;;;5056558;28;20467;-67
2022/11/21 07:29:59;;;;;;;17.73;15.90;;;6.00;99.90;;;;;;5053937;28;20470;-68
2022/11/21 07:32:28;;;;;;;19.47;17.67;;;6.00;99.90;;;;;;5055465;28;20471;-69
2022/11/21 07:34:55;;;;;;;18.50;17.07;;;6.10;99.90;;;;;;5056802;28;20865;-68
2022/11/21 07:37:21;;;;;;;20.37;18.77;;;6.10;99.90;;;;;;5055388;28;20496;-68
2022/11/21 07:39:48;;;;;;;19.93;17.77;;;6.20;99.90;;;;;;5049553;28;20491;-69
2022/11/21 07:42:15;;;;;;;20.73;18.73;;;6.20;99.90;;;;;;5056134;28;20485;-68
2022/11/21 07:44:42;;;;;;;19.77;17.77;;;6.20;99.90;;;;;;5055340;28;20464;-68
2022/11/21 07:47:09;;;;;;;21.67;19.53;;;6.10;99.90;;;;;;5056124;28;20876;-68
2022/11/21 07:49:37;;;;;;;20.63;18.70;;;6.20;99.90;;;;;;5060198;28;20565;-69
2022/11/21 07:52:04;;;;;;;22.50;20.20;;;6.30;99.90;;;;;;5055736;28;20465;-68
2022/11/21 07:54:31;;;;;;;22.40;19.27;;;6.30;99.90;;;;;;5052767;28;20466;-69
2022/11/21 07:56:58;;;;;;;24.93;21.20;;;6.30;99.90;;;;;;5052470;28;20885;-69
2022/11/21 07:59:25;;;;;;;21.37;19.37;;;6.20;99.90;;;;;;5053368;28;20889;-68
2022/11/21 08:01:52;;;;;;;22.20;19.77;;;6.30;99.90;;;;;;5056255;28;20470;-69
2022/11/21 08:04:19;;;;;;;21.53;19.13;;;6.50;99.90;;;;;;5066264;28;20462;-69
2022/11/21 08:06:47;;;;;;;26.77;19.80;;;6.50;99.90;;;;;;5061002;28;20876;-68
2022/11/21 08:09:14;;;;;;;24.43;19.43;;;6.50;99.90;;;;;;5056155;28;20470;-68
2022/11/21 08:11:41;;;;;;;26.93;19.70;;;6.50;99.90;;;;;;5054383;28;20984;-69
2022/11/21 08:14:07;;;;;;;22.57;18.07;;;6.60;99.90;;;;;;5051617;28;20809;-68
2022/11/21 08:16:34;;;;;;;24.97;19.07;;;6.50;99.90;;;;;;5052836;28;20826;-68
2022/11/21 08:19:02;;;;;;;24.30;17.07;;;6.40;99.90;;;;;;5054806;28;20473;-68
2022/11/21 08:21:30;;;;;;;25.00;22.30;;;6.60;99.90;;;;;;5053152;28;20464;-67
2022/11/21 08:23:58;;;;;;;34.50;25.23;;;6.60;99.90;;;;;;5056618;28;20462;-68
2022/11/21 08:26:25;;;;;;;29.10;26.33;;;6.70;99.90;;;;;;5049381;28;20464;-68
2022/11/21 08:28:52;;;;;;;32.30;29.17;;;6.40;99.90;;;;;;5049879;28;20808;-68
2022/11/21 08:31:19;;;;;;;29.97;27.10;;;6.50;99.90;;;;;;5054850;28;20538;-69
2022/11/21 08:33:45;;;;;;;42.93;29.67;;;6.60;99.90;;;;;;5056449;28;20487;-69
2022/11/21 08:36:12;;;;;;;30.33;27.30;;;6.60;99.90;;;;;;5054319;28;21188;-69
2022/11/21 08:38:40;;;;;;;32.73;27.13;;;6.50;99.90;;;;;;5054218;28;20482;-67
2022/11/21 08:43:55;;;;;;;30.70;27.60;;;6.60;99.90;;;;;;5063880;28;20864;-68
2022/11/21 08:46:26;;;;;;;31.47;28.00;;;6.70;99.90;;;;;;5058106;28;20482;-68
2022/11/21 08:48:53;;;;;;;28.10;25.10;;;6.60;99.90;;;;;;5057679;28;20544;-67
2022/11/21 08:51:20;;;;;;;29.17;26.17;;;6.60;99.90;;;;;;5053787;28;20473;-68
2022/11/21 08:53:47;;;;;;;29.17;26.47;;;6.60;99.90;;;;;;5056291;28;20511;-68
2022/11/21 08:56:15;;;;;;;29.73;27.30;;;6.50;99.90;;;;;;5060869;28;21059;-69
2022/11/21 08:58:43;;;;;;;30.03;27.00;;;6.40;99.90;;;;;;5060394;28;20540;-69
2022/11/21 09:01:10;;;;;;;33.93;25.77;;;6.40;99.90;;;;;;5064310;28;20469;-69
2022/11/21 09:03:37;;;;;;;28.90;25.90;;;6.50;99.90;;;;;;5058234;28;20472;-68
2022/11/21 09:06:04;;;;;;;29.70;26.90;;;6.40;99.90;;;;;;5059409;28;20485;-69
2022/11/21 09:08:31;;;;;;;29.67;27.07;;;6.40;99.90;;;;;;5053831;28;21003;-69
2022/11/21 09:10:58;;;;;;;28.47;25.60;;;6.40;99.90;;;;;;5059263;28;20476;-69
2022/11/21 09:13:28;;;;;;;36.73;26.53;;;6.50;99.90;;;;;;5059641;28;20464;-69
2022/11/21 09:18:42;;;;;;;27.50;24.60;;;6.60;99.90;;;;;;5065508;28;20494;-69
2022/11/21 09:21:09;;;;;;;26.10;23.57;;;6.60;99.90;;;;;;5063019;28;20871;-68
2022/11/21 09:23:36;;;;;;;27.03;24.57;;;6.60;99.90;;;;;;5055489;28;20973;-69
2022/11/21 09:26:03;;;;;;;26.17;23.80;;;6.60;99.90;;;;;;5056329;28;20464;-67
2022/11/21 09:28:31;;;;;;;29.00;23.60;;;6.80;99.90;;;;;;5057637;28;20517;-67
2022/11/21 09:30:57;;;;;;;31.30;23.50;;;6.90;99.90;;;;;;5054053;28;20469;-68
2022/11/21 09:33:24;;;;;;;26.23;22.23;;;7.10;99.90;;;;;;5056978;28;20472;-69
2022/11/21 09:35:51;;;;;;;23.07;21.07;;;7.30;99.90;;;;;;5056408;28;20460;-67
2022/11/21 09:38:18;;;;;;;22.67;20.53;;;7.40;99.90;;;;;;5052998;28;20498;-68
2022/11/21 09:40:47;;;;;;;23.40;21.50;;;7.40;99.90;;;;;;5058725;28;20459;-70
2022/11/21 09:43:42;;;;;;;24.00;21.87;;;7.50;99.90;;;;;;5054522;28;20476;-68
2022/11/21 09:46:12;;;;;;;23.30;21.10;;;7.60;99.90;;;;;;5053447;28;20514;-69
2022/11/21 09:48:48;;;;;;;23.37;20.40;;;7.60;99.90;;;;;;5059991;28;20459;-69
2022/11/21 09:51:18;;;;;;;21.10;19.07;;;7.50;99.90;;;;;;5055534;28;20465;-68
2022/11/21 09:53:55;;;;;;;21.67;19.90;;;7.50;99.90;;;;;;5062026;28;20454;-69
2022/11/21 09:56:23;;;;;;;22.10;20.03;;;7.50;99.90;;;;;;5056946;28;20458;-69
2022/11/21 09:59:05;;;;;;;21.87;20.07;;;7.60;99.90;;;;;;5056695;28;20493;-69
2022/11/21 10:01:32;;;;;;;21.87;19.70;;;7.90;99.90;;;;;;5062053;28;20465;-70
2022/11/21 10:04:02;;;;;;;36.27;20.63;;;8.10;99.90;;;;;;5055513;28;21007;-69
2022/11/21 10:06:31;;;;;;;18.53;16.53;;;8.20;99.90;;;;;;5052830;28;20479;-68
2022/11/21 10:09:07;;;;;;;17.47;16.10;;;8.30;99.90;;;;;;5060391;28;20945;-68
2022/11/21 10:14:36;;;;;;;16.70;14.90;;;8.50;99.90;;;;;;5057620;28;20462;-69
2022/11/21 10:17:13;;;;;;;15.40;13.87;;;8.70;99.90;;;;;;5054785;28;20828;-69
2022/11/21 10:19:54;;;;;;;15.50;14.10;;;8.70;99.90;;;;;;5053680;28;20485;-70
2022/11/21 10:22:36;;;;;;;16.20;14.10;;;8.70;99.90;;;;;;5054815;28;20470;-68
2022/11/21 10:25:12;;;;;;;16.03;14.20;;;8.50;99.90;;;;;;5053799;28;20461;-70
2022/11/21 10:27:43;;;;;;;15.37;14.00;;;8.40;99.90;;;;;;5058481;28;20460;-69
2022/11/21 10:30:17;;;;;;;17.43;13.00;;;8.30;99.90;;;;;;5059524;28;20466;-69
2022/11/21 10:32:46;;;;;;;17.73;13.87;;;8.20;99.90;;;;;;5056924;28;20474;-70
2022/11/21 10:35:16;;;;;;;17.80;14.17;;;8.20;99.90;;;;;;5052821;28;20973;-69
2022/11/21 10:37:48;;;;;;;15.10;12.90;;;8.20;99.90;;;;;;5059157;28;20518;-69
2022/11/21 10:40:30;;;;;;;14.03;13.07;;;8.30;99.90;;;;;;5057836;28;20459;-68
2022/11/21 10:45:14;;;;;;;13.40;12.40;;;8.30;99.90;;;;;;5055159;28;21009;-70
2022/11/21 10:45:48;;;;;;;13.50;12.33;;;8.50;99.90;;;;;;5055044;28;21020;-70
2022/11/21 10:48:15;;;;;;;16.03;11.97;;;8.70;99.90;;;;;;5053793;28;20521;-70
2022/11/21 10:50:54;;;;;;;13.60;12.20;;;9.10;99.90;;;;;;5052588;28;20471;-70
2022/11/21 10:56:12;;;;;;;17.40;15.17;;;9.70;99.90;;;;;;5056146;28;20478;-69
2022/11/21 10:58:44;;;;;;;14.23;12.70;;;10.30;99.90;;;;;;5055628;28;20495;-69
2022/11/21 11:01:24;;;;;;;13.07;11.70;;;10.90;99.90;;;;;;5059997;28;20463;-69
2022/11/21 11:04:16;;;;;;;12.90;11.90;;;11.00;99.90;;;;;;5056875;28;20467;-68
2022/11/21 11:06:44;;;;;;;13.20;12.37;;;11.20;99.90;;;;;;5070508;28;20954;-69
2022/11/21 11:09:23;;;;;;;15.60;14.10;;;11.70;99.90;;;;;;5062324;28;20868;-69
2022/11/21 11:11:50;;;;;;;14.47;13.10;;;11.70;99.90;;;;;;5052883;28;20458;-69
2022/11/21 11:14:31;;;;;;;14.20;13.13;;;11.90;99.90;;;;;;5056510;28;20837;-69
2022/11/21 11:17:01;;;;;;;14.10;13.10;;;12.00;99.90;;;;;;5054242;28;20855;-69
2022/11/21 11:19:29;;;;;;;15.37;14.07;;;12.00;99.90;;;;;;5060656;28;20506;-68
2022/11/21 11:21:56;;;;;;;15.50;14.30;;;12.20;99.90;;;;;;5060957;28;20832;-68
2022/11/21 11:24:26;;;;;;;15.63;14.40;;;12.20;99.90;;;;;;5062146;28;20459;-69
2022/11/21 11:26:59;;;;;;;15.03;13.97;;;12.20;99.90;;;;;;5057381;28;20755;-69
2022/11/21 11:29:28;;;;;;;22.27;16.30;;;12.20;99.90;;;;;;5058908;28;20512;-70
2022/11/21 11:31:57;;;;;;;16.70;15.37;;;12.20;99.90;;;;;;5056673;28;20451;-70
2022/11/21 11:34:29;;;;;;;19.40;16.13;;;12.00;99.90;;;;;;5056339;28;20470;-68
2022/11/21 11:37:09;;;;;;;15.30;14.30;;;11.90;99.90;;;;;;5051895;28;20460;-69
2022/11/21 11:39:41;;;;;;;16.60;15.30;;;11.60;99.90;;;;;;5050497;28;21022;-69
2022/11/21 11:48:35;;;;;;;16.53;15.40;;;11.80;99.90;;;;;;5055340;28;20459;-69
2022/11/21 11:51:13;;;;;;;18.07;16.43;;;12.00;99.90;;;;;;5056282;28;20571;-69
2022/11/21 11:53:46;;;;;;;15.37;14.40;;;12.30;99.90;;;;;;5060713;28;20459;-70
2022/11/21 11:56:17;;;;;;;16.13;15.00;;;12.50;99.90;;;;;;5060311;28;20451;-68
2022/11/21 11:58:48;;;;;;;15.07;14.13;;;12.70;99.90;;;;;;5054453;28;20497;-68
2022/11/21 12:01:20;;;;;;;17.27;15.73;;;12.70;99.90;;;;;;5054178;28;20462;-71
2022/11/21 12:03:54;;;;;;;15.93;15.03;;;12.50;99.90;;;;;;5050110;28;20498;-69
2022/11/21 12:06:26;;;;;;;16.20;15.00;;;12.30;99.90;;;;;;5053567;28;20485;-68
2022/11/21 12:08:54;;;;;;;18.23;16.57;;;12.30;99.90;;;;;;5046630;28;20528;-70
2022/11/21 12:17:12;;;;;;;15.93;15.00;;;13.10;99.90;;;;;;5051295;28;20556;-69
2022/11/21 12:19:39;;;;;;;16.37;15.37;;;12.50;99.90;;;;;;5056802;28;20491;-69
2022/11/21 12:22:11;;;;;;;15.77;14.77;;;12.00;99.90;;;;;;5048355;28;20459;-71
2022/11/21 12:24:38;;;;;;;15.30;14.30;;;11.70;99.90;;;;;;5056424;28;20472;-68
2022/11/21 12:27:19;;;;;;;15.77;14.70;;;11.70;99.90;;;;;;5056260;28;20492;-69
2022/11/21 12:30:13;;;;;;;17.03;15.83;;;11.60;99.90;;;;;;5057210;28;20958;-70
2022/11/21 12:32:55;;;;;;;14.90;14.00;;;11.40;99.90;;;;;;5062188;28;20526;-69
2022/11/21 12:35:35;;;;;;;15.50;14.60;;;11.50;99.90;;;;;;5058258;28;20465;-69
2022/11/21 12:38:15;;;;;;;17.33;15.67;;;11.50;99.90;;;;;;5057123;28;20478;-69
2022/11/21 12:40:50;;;;;;;15.20;14.20;;;11.60;99.90;;;;;;5059505;28;20474;-70
2022/11/21 12:43:28;;;;;;;14.80;13.90;;;12.00;99.90;;;;;;5052868;28;20475;-71
2022/11/21 12:46:03;;;;;;;15.00;14.00;;;12.20;99.90;;;;;;5054752;28;20481;-71
2022/11/21 12:54:57;;;;;;;15.80;14.90;;;12.20;99.90;;;;;;5052468;28;20458;-70
2022/11/21 12:57:35;;;;;;;16.43;15.10;;;11.80;99.90;;;;;;5052187;28;20586;-71
2022/11/21 13:00:10;;;;;;;15.70;14.83;;;11.80;99.90;;;;;;5052117;28;20495;-70
2022/11/21 13:02:53;;;;;;;16.03;14.77;;;11.60;99.90;;;;;;5050784;28;21020;-71
2022/11/21 13:05:26;;;;;;;16.23;15.30;;;11.50;99.90;;;;;;5047415;28;20489;-71
2022/11/21 13:08:00;;;;;;;17.00;15.90;;;11.30;99.90;;;;;;5060532;28;20462;-71
2022/11/21 13:10:29;;;;;;;17.13;16.00;;;11.10;99.90;;;;;;5062847;28;20477;-68
2022/11/21 13:13:03;;;;;;;16.63;15.37;;;11.00;99.90;;;;;;5054120;28;20456;-70
2022/11/21 13:15:34;;;;;;;16.63;15.60;;;10.90;99.90;;;;;;5051227;28;20460;-70
2022/11/21 13:18:14;;;;;;;16.33;15.33;;;10.90;99.90;;;;;;5056802;28;20824;-70
2022/11/21 13:20:47;;;;;;;17.97;16.77;;;10.90;99.90;;;;;;5051060;28;20471;-68
2022/11/21 13:23:35;;;;;;;18.10;16.50;;;10.80;99.90;;;;;;5058327;28;20545;-71
2022/11/21 13:26:44;;;;;;;18.23;16.47;;;10.70;99.90;;;;;;5053507;28;20459;-69
2022/11/21 13:29:12;;;;;;;18.97;17.13;;;10.70;99.90;;;;;;5063559;28;21145;-68